Time;durP1;ratioP1;P1;durP2;ratioP2;P2;SDS_P1;SDS_P2;PMS_P1;PMS_P2;Temp;Humidity;BMP_temperature;BMP_pressure;BME280_temperature;BME280_humidity;BME280_pressure;Samples;Min_cycle;Max_cycle;Signal;HPM_P1;HPM_P2
2022/07/17 00:01:53;;;;;;;10.90;6.07;;;;;;;20.02;66.88;100490.47;123249;1100;104310;-76
2022/07/17 00:04:25;;;;;;;11.43;6.17;;;;;;;20.01;66.64;100489.59;123278;1101;104393;-77
2022/07/17 00:06:56;;;;;;;12.93;6.33;;;;;;;20.01;65.97;100491.38;123265;1102;104342;-78
2022/07/17 00:09:27;;;;;;;10.65;6.15;;;;;;;20.01;66.55;100486.06;123245;1102;104348;-77
2022/07/17 00:11:59;;;;;;;11.13;5.63;;;;;;;20.00;65.59;100495.80;123254;1099;104613;-77
2022/07/17 00:14:31;;;;;;;9.63;5.93;;;;;;;20.00;65.81;100498.47;123286;1102;104335;-77
2022/07/17 00:17:02;;;;;;;10.80;5.40;;;;;;;20.00;65.31;100501.13;123230;1099;104418;-77
2022/07/17 00:19:34;;;;;;;12.03;6.00;;;;;;;20.00;66.03;100501.13;123328;1102;104277;-77
2022/07/17 00:22:06;;;;;;;15.23;6.10;;;;;;;19.99;66.16;100507.37;123284;1101;104268;-78
2022/07/17 00:24:37;;;;;;;8.90;5.40;;;;;;;20.03;65.62;100506.45;123331;1102;104201;-77
2022/07/17 00:27:09;;;;;;;10.37;5.30;;;;;;;20.03;65.50;100516.22;123281;1102;104271;-77
2022/07/17 00:29:40;;;;;;;11.30;5.67;;;;;;;20.06;66.24;100510.89;123204;1102;104670;-77
2022/07/17 00:32:12;;;;;;;11.13;5.50;;;;;;;20.04;65.42;100512.64;123254;1102;104267;-77
2022/07/17 00:34:43;;;;;;;10.43;5.43;;;;;;;20.03;66.12;100517.09;123219;1102;104267;-78
2022/07/17 00:37:14;;;;;;;9.67;5.33;;;;;;;20.02;66.03;100517.98;123265;1102;104269;-78
2022/07/17 00:39:46;;;;;;;15.30;5.20;;;;;;;20.02;65.19;100520.64;123208;1102;104239;-78
2022/07/17 00:42:18;;;;;;;11.53;5.47;;;;;;;20.01;65.38;100521.55;123350;1100;104479;-77
2022/07/17 00:44:50;;;;;;;11.57;5.00;;;;;;;19.98;64.81;100521.56;123265;1099;104326;-77
2022/07/17 00:47:22;;;;;;;10.90;4.85;;;;;;;19.97;64.81;100529.55;123225;1099;104245;-77
2022/07/17 00:49:53;;;;;;;9.80;4.87;;;;;;;19.92;65.27;100524.24;123259;1099;104268;-77
2022/07/17 00:52:25;;;;;;;10.57;4.63;;;;;;;19.89;64.58;100525.13;123279;1102;104297;-77
2022/07/17 00:54:58;;;;;;;8.43;4.43;;;;;;;19.89;64.88;100527.78;123224;1102;104352;-76
2022/07/17 00:57:29;;;;;;;;;;;;;;;19.88;64.43;100535.77;123332;1102;104219;-78
2022/07/17 01:00:00;;;;;;;8.40;4.40;;;;;;;19.86;64.11;100529.58;123341;1101;104318;-77
2022/07/17 01:02:32;;;;;;;10.37;4.77;;;;;;;19.85;63.71;100527.80;123434;1099;104268;-77
2022/07/17 01:05:04;;;;;;;14.30;5.23;;;;;;;19.85;63.64;100528.70;123505;1099;104304;-77
2022/07/17 01:07:36;;;;;;;9.47;4.60;;;;;;;19.86;64.22;100513.60;123470;1102;104411;-77
2022/07/17 01:10:09;;;;;;;9.30;4.40;;;;;;;19.87;63.48;100518.92;123478;1099;104284;-77
2022/07/17 01:12:41;;;;;;;8.53;4.60;;;;;;;19.88;63.67;100522.46;123343;1102;104367;-77
2022/07/17 01:15:14;;;;;;;9.37;4.73;;;;;;;19.89;63.39;100522.46;123335;1102;104280;-77
2022/07/17 01:17:47;;;;;;;11.47;4.90;;;;;;;19.89;63.11;100517.13;123418;1102;104178;-77
2022/07/17 01:20:19;;;;;;;11.23;4.63;;;;;;;19.90;62.42;100531.36;123211;1102;104328;-76
2022/07/17 01:22:54;;;;;;;10.50;4.40;;;;;;;19.90;62.59;100539.34;123436;1102;104331;-77
2022/07/17 01:25:25;;;;;;;9.33;4.30;;;;;;;19.92;62.72;100541.09;123827;1102;104220;-77
2022/07/17 01:27:57;;;;;;;9.20;4.53;;;;;;;19.96;62.30;100549.98;123374;1102;104300;-78
2022/07/17 01:30:29;;;;;;;8.67;4.30;;;;;;;19.96;62.15;100554.41;123421;1101;104373;-77
2022/07/17 01:33:00;;;;;;;11.80;4.60;;;;;;;19.95;62.70;100545.53;123440;1102;104349;-77
2022/07/17 01:35:32;;;;;;;12.43;5.03;;;;;;;19.96;61.84;100552.65;123471;1102;104373;-76
2022/07/17 01:38:03;;;;;;;10.97;4.57;;;;;;;19.92;62.18;100546.42;123217;1100;104268;-78
2022/07/17 01:40:35;;;;;;;10.10;4.67;;;;;;;19.90;61.75;100550.88;123284;1102;104348;-77
2022/07/17 01:43:07;;;;;;;11.87;4.67;;;;;;;19.86;62.46;100557.08;123274;1099;104301;-78
2022/07/17 01:45:38;;;;;;;10.47;4.60;;;;;;;19.84;62.05;100557.99;123278;1102;104480;-77
2022/07/17 01:48:10;;;;;;;8.65;4.50;;;;;;;19.80;62.44;100549.09;123285;1099;104354;-77
2022/07/17 01:50:41;;;;;;;9.20;4.70;;;;;;;19.79;62.15;100558.00;123280;1099;104262;-77
2022/07/17 01:53:13;;;;;;;9.97;4.50;;;;;;;19.78;62.90;100560.66;123263;1102;104341;-78
2022/07/17 01:55:44;;;;;;;12.20;4.90;;;;;;;19.77;62.02;100561.54;123224;1102;104755;-78
2022/07/17 01:58:15;;;;;;;8.37;4.63;;;;;;;19.78;63.01;100565.98;123218;1101;104511;-77
2022/07/17 02:00:47;;;;;;;11.67;4.70;;;;;;;19.75;63.01;100565.05;123320;1102;105421;-77
2022/07/17 02:03:19;;;;;;;10.73;4.40;;;;;;;19.75;63.11;100558.84;123335;1102;104344;-78
2022/07/17 02:05:50;;;;;;;6.57;4.47;;;;;;;19.74;62.96;100567.71;123359;1102;104344;-78
2022/07/17 02:08:22;;;;;;;7.73;4.87;;;;;;;19.75;63.14;100569.50;123243;1102;104335;-77
2022/07/17 02:10:53;;;;;;;9.20;4.37;;;;;;;19.76;62.89;100573.94;123192;1099;104747;-78
2022/07/17 02:13:25;;;;;;;9.97;4.90;;;;;;;19.75;63.42;100570.38;123254;1099;104325;-77
2022/07/17 02:15:56;;;;;;;13.40;4.80;;;;;;;19.71;63.96;100581.93;123265;1099;104267;-77
2022/07/17 02:18:27;;;;;;;11.57;5.00;;;;;;;19.71;63.62;100594.33;123237;1102;104287;-77
2022/07/17 02:20:59;;;;;;;10.67;5.47;;;;;;;19.67;63.37;100595.24;123253;1102;104316;-77
2022/07/17 02:23:30;;;;;;;8.90;4.80;;;;;;;19.64;64.15;100587.25;123295;1102;104252;-77
2022/07/17 02:26:02;;;;;;;9.87;4.50;;;;;;;19.63;64.07;100583.69;123317;1102;104274;-77
2022/07/17 02:28:33;;;;;;;9.17;4.60;;;;;;;19.63;63.54;100574.82;123379;1102;104242;-77
2022/07/17 02:31:05;;;;;;;7.83;4.33;;;;;;;19.65;64.36;100581.94;123264;1100;104265;-77
2022/07/17 02:33:37;;;;;;;8.37;4.53;;;;;;;19.64;64.25;100580.14;123289;1102;104447;-78
2022/07/17 02:36:09;;;;;;;8.67;5.10;;;;;;;19.55;64.60;100585.47;123193;1102;104336;-76
2022/07/17 02:38:40;;;;;;;10.07;5.13;;;;;;;19.48;64.80;100584.59;123224;1102;104162;-77
2022/07/17 02:41:12;;;;;;;11.00;4.77;;;;;;;19.43;64.48;100582.80;123219;1099;104243;-78
2022/07/17 02:43:43;;;;;;;9.07;4.60;;;;;;;19.37;64.77;100578.38;123225;1102;104354;-77
2022/07/17 02:46:15;;;;;;;8.50;4.60;;;;;;;19.35;64.73;100586.36;123221;1102;104309;-78
2022/07/17 02:48:46;;;;;;;7.43;4.50;;;;;;;19.35;64.89;100593.44;123299;1102;104432;-77
2022/07/17 02:51:18;;;;;;;9.87;4.30;;;;;;;19.31;64.84;100589.02;123340;1101;105505;-77
2022/07/17 02:53:49;;;;;;;9.55;4.70;;;;;;;19.26;65.09;100586.35;123375;1099;109360;-77
2022/07/17 02:56:20;;;;;;;9.90;4.80;;;;;;;19.25;64.86;100597.86;123359;1099;104322;-76
2022/07/17 02:58:52;;;;;;;8.77;4.87;;;;;;;19.26;65.20;100596.08;123326;1099;104308;-76
2022/07/17 03:01:23;;;;;;;9.10;4.60;;;;;;;19.22;64.62;100596.08;123329;1099;104405;-76
2022/07/17 03:03:55;;;;;;;9.07;4.67;;;;;;;19.22;64.85;100600.52;123241;1100;104335;-77
2022/07/17 03:06:26;;;;;;;9.07;4.67;;;;;;;19.26;65.05;100596.08;123309;1100;104264;-77
2022/07/17 03:08:59;;;;;;;11.50;4.60;;;;;;;19.28;65.29;100603.19;123266;1102;104377;-77
2022/07/17 03:11:31;;;;;;;8.07;4.70;;;;;;;19.28;65.44;100600.53;123305;1100;104341;-77
2022/07/17 03:14:04;;;;;;;10.50;4.67;;;;;;;19.25;65.40;100611.16;123319;1099;105713;-77
2022/07/17 03:16:35;;;;;;;12.87;5.00;;;;;;;19.24;65.53;100606.72;123308;1102;104268;-77
2022/07/17 03:19:07;;;;;;;9.40;5.05;;;;;;;19.29;65.32;100609.39;123233;1099;104335;-77
2022/07/17 03:21:39;;;;;;;12.57;4.53;;;;;;;19.30;65.13;100609.39;123255;1100;104284;-77
2022/07/17 03:24:10;;;;;;;13.20;5.30;;;;;;;19.31;65.91;100610.30;123296;1102;104666;-78
2022/07/17 03:26:42;;;;;;;8.13;4.87;;;;;;;19.28;65.19;100613.83;123290;1102;104408;-77
2022/07/17 03:29:17;;;;;;;7.10;4.63;;;;;;;19.29;65.60;100615.62;123409;1101;104235;-77
2022/07/17 03:31:48;;;;;;;11.63;4.80;;;;;;;19.29;65.90;100614.70;123370;1102;104382;-77
2022/07/17 03:34:20;;;;;;;12.00;4.70;;;;;;;19.32;65.19;100615.63;123254;1099;104265;-78
2022/07/17 03:36:51;;;;;;;15.73;4.70;;;;;;;19.31;65.80;100611.17;123246;1099;104270;-79
2022/07/17 03:39:23;;;;;;;8.97;4.73;;;;;;;19.31;65.62;100620.94;123231;1099;104647;-77
2022/07/17 03:41:54;;;;;;;11.57;4.97;;;;;;;19.32;65.32;100628.02;123277;1099;104341;-77
2022/07/17 03:44:25;;;;;;;8.73;4.53;;;;;;;19.31;65.46;100639.56;123172;1100;104357;-78
2022/07/17 03:46:57;;;;;;;9.73;4.80;;;;;;;19.29;65.28;100634.24;123287;1099;104230;-77
2022/07/17 03:49:28;;;;;;;10.40;4.80;;;;;;;19.29;65.45;100642.22;123193;1100;104349;-78
2022/07/17 03:52:00;;;;;;;10.87;4.90;;;;;;;19.25;65.21;100644.87;123199;1102;104386;-77
2022/07/17 03:54:32;;;;;;;11.35;5.10;;;;;;;19.24;65.28;100656.38;123274;1100;104245;-77
2022/07/17 03:57:03;;;;;;;8.70;4.90;;;;;;;19.24;65.80;100654.60;123275;1099;104235;-78
2022/07/17 03:59:34;;;;;;;10.57;4.70;;;;;;;19.22;66.18;100651.06;123312;1099;104262;-77
2022/07/17 04:02:06;;;;;;;13.43;5.70;;;;;;;19.20;65.99;100660.81;123223;1099;104319;-78
2022/07/17 04:04:37;;;;;;;11.90;5.20;;;;;;;19.23;65.91;100663.48;123186;1100;104643;-78
2022/07/17 04:07:26;;;;;;;10.80;5.00;;;;;;;19.27;66.10;100673.23;123222;1099;104714;-79
2022/07/17 04:09:59;;;;;;;14.20;5.43;;;;;;;19.33;65.82;100659.06;123225;1099;104264;-77
2022/07/17 04:12:31;;;;;;;11.25;5.42;;;;;;;19.33;65.98;100667.05;123335;1102;104267;-77
2022/07/17 04:15:03;;;;;;;13.23;5.67;;;;;;;19.35;66.10;100668.84;123228;1099;104368;-78
2022/07/17 04:17:35;;;;;;;12.85;4.90;;;;;;;19.35;66.15;100666.18;123252;1099;104364;-77
2022/07/17 04:20:09;;;;;;;10.30;5.10;;;;;;;19.39;65.75;100659.08;123399;1099;104409;-77
2022/07/17 04:22:40;;;;;;;7.95;4.67;;;;;;;19.43;66.14;100666.20;123386;1099;104473;-76
2022/07/17 04:25:12;;;;;;;13.90;4.93;;;;;;;19.45;65.88;100666.20;123383;1099;104338;-77
2022/07/17 04:27:43;;;;;;;10.70;4.80;;;;;;;19.48;65.79;100679.52;123340;1099;104679;-77
2022/07/17 04:30:14;;;;;;;12.67;4.90;;;;;;;19.48;65.73;100685.71;123348;1100;104348;-77
2022/07/17 04:32:46;;;;;;;13.23;5.00;;;;;;;19.51;65.83;100688.38;123359;1100;104860;-77
2022/07/17 04:35:17;;;;;;;8.37;4.80;;;;;;;19.55;65.79;100683.94;123240;1099;104317;-78
2022/07/17 04:37:49;;;;;;;10.07;5.60;;;;;;;19.56;65.40;100685.73;123316;1099;104233;-77
2022/07/17 04:40:20;;;;;;;8.47;4.90;;;;;;;19.60;66.28;100686.61;123229;1099;104683;-77
2022/07/17 04:42:52;;;;;;;9.90;4.80;;;;;;;19.66;65.55;100698.14;123238;1099;104367;-77
2022/07/17 04:45:23;;;;;;;12.20;5.30;;;;;;;19.67;66.06;100704.38;123241;1099;104357;-77
2022/07/17 04:47:55;;;;;;;9.87;5.00;;;;;;;19.64;65.39;100705.25;123220;1099;104372;-78
2022/07/17 04:50:26;;;;;;;9.43;4.60;;;;;;;19.62;65.86;100706.12;123255;1099;104296;-77
2022/07/17 04:52:58;;;;;;;12.77;5.10;;;;;;;19.62;65.74;100700.80;123270;1099;104315;-77
2022/07/17 04:55:30;;;;;;;10.33;5.00;;;;;;;19.64;66.10;100704.38;123190;1100;104408;-78
2022/07/17 04:58:01;;;;;;;9.73;5.50;;;;;;;19.67;66.21;100689.28;123271;1099;104809;-77
2022/07/17 05:00:33;;;;;;;7.77;4.60;;;;;;;19.72;66.22;100694.62;123295;1099;104383;-77
2022/07/17 05:03:04;;;;;;;9.10;5.17;;;;;;;19.78;65.21;100696.45;123307;1099;104242;-78
2022/07/17 05:05:36;;;;;;;12.47;5.57;;;;;;;19.83;65.60;100699.98;123224;1099;104728;-77
2022/07/17 05:08:08;;;;;;;8.77;4.50;;;;;;;19.88;65.04;100708.86;123240;1099;104316;-77
2022/07/17 05:10:39;;;;;;;9.10;4.47;;;;;;;19.93;65.39;100707.11;123283;1099;104368;-76
2022/07/17 05:13:12;;;;;;;9.03;4.90;;;;;;;19.98;65.88;100709.78;123245;1099;104352;-77
2022/07/17 05:15:43;;;;;;;9.27;4.73;;;;;;;20.02;65.00;100723.06;123265;1099;104245;-77
2022/07/17 05:18:15;;;;;;;8.95;4.50;;;;;;;20.11;64.67;100730.18;123325;1099;104309;-78
2022/07/17 05:20:46;;;;;;;8.40;4.17;;;;;;;20.25;64.74;100740.84;123383;1102;104502;-77
2022/07/17 05:23:18;;;;;;;11.90;5.37;;;;;;;20.38;64.45;100737.30;123320;1100;104277;-77
2022/07/17 05:25:49;;;;;;;9.20;4.70;;;;;;;20.41;64.13;100745.28;123269;1099;104701;-77
2022/07/17 05:28:20;;;;;;;12.40;5.20;;;;;;;20.38;64.23;100753.28;123303;1099;104631;-78
2022/07/17 05:30:52;;;;;;;11.47;4.97;;;;;;;20.39;64.03;100748.83;123329;1099;104223;-77
2022/07/17 05:33:23;;;;;;;9.47;5.10;;;;;;;20.48;63.85;100748.82;123238;1099;104440;-77
2022/07/17 05:35:55;;;;;;;9.00;4.90;;;;;;;20.62;63.48;100746.14;123284;1099;104245;-77
2022/07/17 05:38:27;;;;;;;7.13;4.27;;;;;;;20.75;64.09;100752.36;123345;1099;104268;-77
2022/07/17 05:40:58;;;;;;;7.93;4.40;;;;;;;20.89;63.07;100747.00;123304;1099;104348;-77
2022/07/17 05:43:31;;;;;;;8.57;4.30;;;;;;;20.97;62.80;100753.19;123415;1102;104296;-76
2022/07/17 05:46:02;;;;;;;6.78;3.70;;;;;;;21.04;62.18;100751.41;123432;1100;104316;-77
2022/07/17 05:48:34;;;;;;;9.00;4.13;;;;;;;21.06;62.65;100754.95;123392;1100;104314;-76
2022/07/17 05:51:06;;;;;;;10.77;4.47;;;;;;;21.09;63.01;100758.48;123367;1099;104339;-77
2022/07/17 05:53:37;;;;;;;8.00;4.27;;;;;;;21.12;62.22;100761.14;123434;1102;104312;-76
2022/07/17 05:56:09;;;;;;;7.93;4.40;;;;;;;21.14;61.67;100761.13;123417;1099;105415;-78
2022/07/17 05:58:41;;;;;;;11.80;4.50;;;;;;;21.17;60.73;100756.66;123377;1102;104344;-77
2022/07/17 06:01:12;;;;;;;11.47;4.60;;;;;;;21.15;60.35;100754.92;123439;1099;104322;-76
2022/07/17 06:03:43;;;;;;;8.10;4.27;;;;;;;21.21;60.83;100756.66;123480;1099;104188;-77
2022/07/17 06:06:15;;;;;;;6.83;4.23;;;;;;;21.22;61.24;100764.65;123512;1099;104338;-77
2022/07/17 06:08:46;;;;;;;8.97;4.70;;;;;;;21.28;60.50;100755.74;123341;1099;104220;-77
2022/07/17 06:11:17;;;;;;;7.33;4.17;;;;;;;21.31;60.88;100759.27;123359;1100;104341;-77
2022/07/17 06:13:49;;;;;;;7.50;4.33;;;;;;;21.30;59.34;100746.85;123378;1102;104274;-77
2022/07/17 06:16:20;;;;;;;9.43;4.63;;;;;;;21.37;59.86;100747.70;123233;1102;104746;-77
2022/07/17 06:18:52;;;;;;;7.10;4.40;;;;;;;21.42;59.28;100745.88;123330;1102;104835;-77
2022/07/17 06:21:23;;;;;;;8.53;4.87;;;;;;;21.50;59.81;100748.55;123293;1100;104227;-77
2022/07/17 06:23:55;;;;;;;8.80;4.37;;;;;;;21.52;58.75;100761.00;123322;1102;104270;-77
2022/07/17 06:26:26;;;;;;;8.10;4.10;;;;;;;21.52;59.38;100750.33;123275;1099;104738;-78
2022/07/17 06:28:57;;;;;;;9.13;4.67;;;;;;;21.60;58.19;100760.97;123279;1099;104329;-77
2022/07/17 06:31:29;;;;;;;11.13;4.97;;;;;;;21.64;58.59;100754.69;123277;1099;104249;-78
2022/07/17 06:34:00;;;;;;;9.20;4.90;;;;;;;21.67;59.29;100761.80;123248;1099;104332;-77
2022/07/17 06:36:32;;;;;;;12.43;5.40;;;;;;;21.67;58.48;100767.14;123244;1099;104846;-77
2022/07/17 06:39:03;;;;;;;9.63;4.70;;;;;;;21.71;58.89;100760.91;123286;1099;104345;-77
2022/07/17 06:41:35;;;;;;;8.47;4.43;;;;;;;21.71;58.32;100752.89;123367;1099;104268;-77
2022/07/17 06:44:07;;;;;;;9.67;5.07;;;;;;;21.75;58.68;100765.30;123427;1102;104246;-77
2022/07/17 06:46:38;;;;;;;9.57;4.30;;;;;;;21.80;58.72;100763.52;123352;1102;104239;-77
2022/07/17 06:49:10;;;;;;;9.10;4.30;;;;;;;21.79;57.96;100751.05;123309;1099;104434;-77
2022/07/17 06:51:41;;;;;;;9.43;4.57;;;;;;;21.80;57.59;100759.94;123326;1102;104280;-78
2022/07/17 06:54:13;;;;;;;8.63;4.40;;;;;;;21.82;56.79;100753.70;123286;1099;104342;-77
2022/07/17 06:56:44;;;;;;;8.67;4.43;;;;;;;21.90;55.43;100750.98;123219;1099;104267;-76
2022/07/17 06:59:16;;;;;;;10.23;4.40;;;;;;;21.94;55.11;100742.06;123288;1098;104303;-77
2022/07/17 07:01:47;;;;;;;10.20;4.23;;;;;;;21.94;54.13;100760.75;123304;1099;104267;-78
2022/07/17 07:04:19;;;;;;;7.63;4.10;;;;;;;22.01;53.96;100758.92;123306;1100;104261;-78
2022/07/17 07:06:50;;;;;;;8.93;4.57;;;;;;;22.12;54.48;100767.73;123289;1099;104264;-77
2022/07/17 07:09:22;;;;;;;8.10;3.70;;;;;;;22.18;52.93;100758.80;123349;1099;104264;-77
2022/07/17 07:11:53;;;;;;;11.73;4.50;;;;;;;22.28;53.03;100748.91;123340;1099;104335;-77
2022/07/17 07:14:25;;;;;;;8.27;4.07;;;;;;;22.37;52.77;100757.75;123373;1099;104408;-78
2022/07/17 07:16:57;;;;;;;15.37;4.07;;;;;;;22.43;51.78;100759.49;123297;1102;104348;-77
2022/07/17 07:19:28;;;;;;;6.27;3.80;;;;;;;22.54;50.96;100767.42;123375;1099;104267;-77
2022/07/17 07:22:00;;;;;;;10.80;3.77;;;;;;;22.64;50.72;100762.86;123279;1099;104269;-77
2022/07/17 07:24:31;;;;;;;7.73;3.70;;;;;;;22.77;51.08;100764.52;123271;1102;104460;-77
2022/07/17 07:27:03;;;;;;;9.27;3.73;;;;;;;22.97;50.27;100766.98;123309;1102;105620;-77
2022/07/17 07:29:34;;;;;;;6.33;3.67;;;;;;;23.18;50.04;100764.98;123284;1100;104300;-77
2022/07/17 07:32:06;;;;;;;6.63;3.63;;;;;;;23.31;49.09;100771.94;123241;1099;104261;-77
2022/07/17 07:34:38;;;;;;;6.83;3.67;;;;;;;23.41;49.30;100762.02;123334;1099;104277;-77
2022/07/17 07:37:10;;;;;;;7.57;3.57;;;;;;;23.58;49.53;100764.48;123216;1101;104312;-78
2022/07/17 07:39:41;;;;;;;6.03;3.70;;;;;;;23.77;47.43;100763.28;123274;1099;104350;-77
2022/07/17 07:42:13;;;;;;;6.97;3.40;;;;;;;23.88;47.24;100768.52;123297;1099;104661;-77
2022/07/17 07:44:44;;;;;;;6.97;3.10;;;;;;;23.85;46.25;100774.80;123270;1102;104236;-78
2022/07/17 07:47:16;;;;;;;4.33;2.70;;;;;;;24.01;45.68;100762.08;123311;1098;104223;-78
2022/07/17 07:49:47;;;;;;;6.10;3.07;;;;;;;24.01;45.43;100770.12;123297;1099;118959;-77
2022/07/17 07:52:19;;;;;;;6.13;2.77;;;;;;;24.15;44.65;100772.58;123299;1099;104213;-78
2022/07/17 07:54:50;;;;;;;4.97;3.10;;;;;;;24.29;44.18;100777.69;123307;1099;104348;-77
2022/07/17 07:57:21;;;;;;;4.37;2.80;;;;;;;24.34;43.58;100781.20;123266;1099;104335;-76
2022/07/17 07:59:53;;;;;;;5.40;3.10;;;;;;;24.43;42.43;100781.95;123367;1099;104344;-77
2022/07/17 08:02:25;;;;;;;6.33;2.73;;;;;;;24.62;43.43;100774.48;123225;1102;104318;-77
2022/07/17 08:04:56;;;;;;;2.95;2.40;;;;;;;24.82;42.12;100782.17;123295;1099;104363;-77
2022/07/17 08:07:30;;;;;;;3.93;2.20;;;;;;;24.89;41.19;100790.08;123327;1099;104987;-77
2022/07/17 08:10:01;;;;;;;7.20;2.30;;;;;;;24.91;39.22;100785.56;123286;1099;104267;-76
2022/07/17 08:12:33;;;;;;;5.30;2.60;;;;;;;24.90;39.08;100782.90;123309;1100;104239;-77
2022/07/17 08:15:05;;;;;;;4.43;2.50;;;;;;;25.04;39.63;100790.69;123320;1099;104294;-76
2022/07/17 08:17:36;;;;;;;4.10;2.30;;;;;;;25.20;40.37;100777.87;123327;1102;104358;-77
2022/07/17 08:20:10;;;;;;;5.40;2.40;;;;;;;25.27;39.20;100777.71;123306;1099;104232;-76
2022/07/17 08:22:42;;;;;;;2.47;2.10;;;;;;;25.30;38.88;100779.46;123315;1099;104252;-77
2022/07/17 08:25:14;;;;;;;4.23;2.40;;;;;;;25.40;39.88;100759.56;123359;1099;104235;-77
2022/07/17 08:27:46;;;;;;;2.77;2.17;;;;;;;25.39;37.33;100763.15;123351;1099;104261;-76
2022/07/17 08:30:18;;;;;;;4.77;2.47;;;;;;;25.29;38.02;100772.31;123290;1099;104386;-77
2022/07/17 08:32:49;;;;;;;4.73;2.13;;;;;;;25.43;38.06;100762.18;123248;1099;104717;-77
2022/07/17 08:35:20;;;;;;;2.93;2.17;;;;;;;25.63;38.68;100764.42;123222;1099;104216;-77
2022/07/17 08:37:53;;;;;;;4.00;2.30;;;;;;;25.76;36.81;100769.53;123317;1099;104288;-77
2022/07/17 08:40:27;;;;;;;7.60;2.47;;;;;;;25.64;35.81;100770.67;123347;1099;104270;-76
2022/07/17 08:43:00;;;;;;;7.73;3.07;;;;;;;25.65;36.69;100759.89;123265;1098;104780;-78
2022/07/17 08:45:32;;;;;;;6.00;2.60;;;;;;;25.70;35.87;100781.29;123324;1099;104626;-76
2022/07/17 08:48:03;;;;;;;3.00;2.10;;;;;;;25.64;35.71;100776.92;123255;1099;104226;-77
2022/07/17 08:50:36;;;;;;;4.73;2.50;;;;;;;25.59;36.36;100786.90;123275;1099;104302;-76
2022/07/17 08:53:08;;;;;;;4.17;2.70;;;;;;;25.57;36.45;100771.72;123244;1100;104350;-78
2022/07/17 08:55:39;;;;;;;3.60;2.20;;;;;;;25.66;36.47;100790.33;123243;1099;104396;-76
2022/07/17 08:58:17;;;;;;;5.40;2.30;;;;;;;25.76;36.29;100774.91;123259;1099;104304;-76
2022/07/17 09:00:51;;;;;;;2.20;2.00;;;;;;;25.88;35.97;100774.59;123188;1099;104337;-79
2022/07/17 09:03:23;;;;;;;6.70;2.13;;;;;;;25.93;36.33;100774.48;123572;1098;104252;-77
2022/07/17 09:05:54;;;;;;;6.17;2.13;;;;;;;25.92;35.88;100775.42;123723;1099;104293;-76
2022/07/17 09:08:29;;;;;;;4.27;2.50;;;;;;;25.96;35.51;100782.47;123441;1099;104506;-77
2022/07/17 09:11:01;;;;;;;2.20;1.80;;;;;;;25.94;36.07;100781.63;123505;1099;104206;-76
2022/07/17 09:13:33;;;;;;;2.37;2.00;;;;;;;26.06;35.20;100786.75;123490;1099;104299;-76
2022/07/17 09:16:12;;;;;;;5.47;2.13;;;;;;;26.08;34.89;100784.03;123531;1099;104493;-77
2022/07/17 09:18:49;;;;;;;5.37;2.17;;;;;;;26.13;34.93;100774.94;123626;1099;104228;-76
2022/07/17 09:21:23;;;;;;;2.40;1.97;;;;;;;26.16;34.37;100773.96;123669;1099;104402;-76
2022/07/17 09:24:05;;;;;;;4.20;2.03;;;;;;;26.19;34.76;100779.27;123657;1099;104284;-77
2022/07/17 09:26:45;;;;;;;4.63;2.00;;;;;;;26.28;34.57;100778.16;123580;1099;104386;-77
2022/07/17 09:29:17;;;;;;;5.70;2.10;;;;;;;26.29;34.06;100780.81;123701;1099;104309;-76
2022/07/17 09:31:54;;;;;;;6.50;2.30;;;;;;;26.32;34.53;100790.63;123842;1099;104338;-76
2022/07/17 09:34:26;;;;;;;4.53;2.13;;;;;;;26.38;34.95;100779.68;123741;1099;104424;-77
2022/07/17 09:37:03;;;;;;;6.13;2.20;;;;;;;26.33;34.67;100797.75;123762;1099;104344;-76
2022/07/17 09:39:41;;;;;;;4.40;2.40;;;;;;;26.23;34.88;100793.55;123560;1099;104268;-76
2022/07/17 09:42:24;;;;;;;3.53;2.40;;;;;;;26.28;34.85;100800.55;123597;1099;104245;-76
2022/07/17 09:45:01;;;;;;;5.60;2.10;;;;;;;26.22;34.96;100805.21;123623;1099;104235;-77
2022/07/17 09:47:35;;;;;;;2.50;2.20;;;;;;;26.29;34.86;100802.34;123552;1099;104370;-76
2022/07/17 09:50:09;;;;;;;4.70;2.30;;;;;;;26.25;34.71;100802.45;123613;1099;104657;-77
2022/07/17 09:52:41;;;;;;;2.90;2.20;;;;;;;26.20;35.21;100799.87;123776;1099;104248;-76
2022/07/17 09:55:14;;;;;;;2.83;2.30;;;;;;;26.17;34.75;100805.33;123712;1099;104267;-76
2022/07/17 09:57:48;;;;;;;3.93;2.37;;;;;;;26.09;34.80;100810.01;123647;1099;104354;-77
2022/07/17 10:00:20;;;;;;;4.20;2.20;;;;;;;26.13;35.51;100804.52;123601;1099;104267;-77
2022/07/17 10:02:52;;;;;;;5.70;2.57;;;;;;;26.16;35.17;100812.52;123566;1099;104355;-76
2022/07/17 10:05:24;;;;;;;5.70;2.30;;;;;;;26.05;35.02;100813.68;123506;1099;104335;-77
2022/07/17 10:07:56;;;;;;;6.77;2.60;;;;;;;25.93;35.38;100814.80;123622;1099;104336;-76
2022/07/17 10:10:29;;;;;;;6.27;2.07;;;;;;;25.86;35.16;100818.57;123354;1099;104303;-77
2022/07/17 10:13:01;;;;;;;6.20;2.60;;;;;;;25.78;35.21;100819.61;123575;1099;104880;-76
2022/07/17 10:15:34;;;;;;;4.03;2.37;;;;;;;25.75;35.50;100814.30;123629;1099;104380;-76
2022/07/17 10:18:09;;;;;;;5.47;2.40;;;;;;;25.58;35.13;100832.61;123703;1099;104344;-76
2022/07/17 10:20:40;;;;;;;4.33;2.40;;;;;;;25.57;34.71;100834.42;123653;1099;104267;-76
2022/07/17 10:23:18;;;;;;;4.60;2.60;;;;;;;25.50;35.03;100816.65;123573;1099;104281;-76
2022/07/17 10:26:00;;;;;;;3.93;2.00;;;;;;;25.48;35.42;100816.68;123601;1099;104401;-76
2022/07/17 10:28:43;;;;;;;2.73;2.40;;;;;;;25.46;35.71;100812.25;123633;1099;104267;-77
2022/07/17 10:31:25;;;;;;;4.87;2.47;;;;;;;25.59;36.05;100810.20;123652;1099;104264;-77
2022/07/17 10:34:01;;;;;;;3.33;2.40;;;;;;;25.68;35.80;100815.38;123636;1098;104269;-77
2022/07/17 10:36:38;;;;;;;3.63;2.30;;;;;;;25.58;34.92;100825.42;123723;1099;104319;-76
2022/07/17 10:39:18;;;;;;;2.47;2.20;;;;;;;25.55;34.72;100821.92;123604;1099;104534;-78
2022/07/17 10:42:01;;;;;;;4.70;2.10;;;;;;;25.47;34.94;100822.09;123749;1098;104306;-77
2022/07/17 10:44:33;;;;;;;6.07;2.20;;;;;;;25.37;34.75;100818.72;123644;1099;104248;-77
2022/07/17 10:47:05;;;;;;;3.13;1.93;;;;;;;25.33;34.84;100818.81;123513;1099;104221;-78
2022/07/17 10:49:37;;;;;;;3.20;2.10;;;;;;;25.30;34.53;100825.11;123686;1099;104214;-76
2022/07/17 10:52:09;;;;;;;3.60;2.30;;;;;;;25.26;35.00;100829.64;123525;1099;104296;-76
2022/07/17 10:54:41;;;;;;;4.57;2.20;;;;;;;25.25;34.90;100826.98;123664;1099;104290;-77
2022/07/17 10:57:13;;;;;;;2.40;2.20;;;;;;;25.28;35.14;100825.14;123690;1099;104255;-77
2022/07/17 10:59:46;;;;;;;2.63;2.00;;;;;;;25.35;34.79;100822.34;123631;1099;104482;-76
2022/07/17 11:02:18;;;;;;;5.97;2.20;;;;;;;25.36;34.48;100824.12;123610;1099;104813;-77
2022/07/17 11:04:49;;;;;;;5.35;2.30;;;;;;;25.36;34.48;100832.17;123514;1099;104384;-77
2022/07/17 11:07:20;;;;;;;2.80;2.10;;;;;;;25.22;34.49;100851.22;123665;1099;104261;-77
2022/07/17 11:09:52;;;;;;;4.00;2.07;;;;;;;25.21;34.50;100838.69;123696;1099;104309;-77
2022/07/17 11:12:33;;;;;;;5.37;2.23;;;;;;;25.24;34.39;100823.42;123570;1099;104245;-77
2022/07/17 11:15:07;;;;;;;2.37;2.07;;;;;;;25.35;34.73;100820.53;123616;1099;104387;-77
2022/07/17 11:17:37;;;;;;;;;;;;;;;25.45;34.63;100824.80;123660;1099;104220;-77
2022/07/17 11:20:10;;;;;;;4.37;2.00;;;;;;;25.45;34.04;100830.18;123681;1099;104262;-77
2022/07/17 11:22:41;;;;;;;4.83;2.10;;;;;;;25.35;33.47;100817.84;123646;1099;104341;-76
2022/07/17 11:25:13;;;;;;;3.83;1.93;;;;;;;25.27;33.99;100831.42;123563;1099;104195;-77
2022/07/17 11:27:44;;;;;;;2.53;1.90;;;;;;;25.30;33.82;100825.98;123484;1099;104264;-76
2022/07/17 11:30:16;;;;;;;4.55;2.05;;;;;;;25.33;33.84;100814.31;123589;1099;104265;-77